Time;durP1;ratioP1;P1;durP2;ratioP2;P2;SDS_P1;SDS_P2;PMS_P1;PMS_P2;Temp;Humidity;BMP_temperature;BMP_pressure;BME280_temperature;BME280_humidity;BME280_pressure;Samples;Min_cycle;Max_cycle;Signal;HPM_P1;HPM_P2
2021/04/05 00:00:18;;;;;;;6.400001;3.65;;;;;;;1.73;39.92676;95008.71;;;;
2021/04/05 00:01:21;;;;;;;6.400001;3.65;;;;;;;1.73;39.92676;95008.71;;;;
2021/04/05 00:02:22;;;;;;;6.400001;3.65;;;;;;;1.73;39.92676;95008.71;;;;
2021/04/05 00:03:22;;;;;;;6.400001;3.65;;;;;;;1.73;39.92676;95008.71;;;;
2021/04/05 00:04:24;;;;;;;6.400001;3.65;;;;;;;1.73;39.92676;95008.71;;;;
2021/04/05 00:05:25;;;;;;;6.400001;3.65;;;;;;;1.73;39.92676;95008.71;;;;
2021/04/05 00:06:28;;;;;;;6.400001;3.65;;;;;;;1.73;39.92676;95008.71;;;;
2021/04/05 00:07:28;;;;;;;6.400001;3.65;;;;;;;1.73;39.92676;95008.71;;;;
2021/04/05 00:08:29;;;;;;;6.400001;3.65;;;;;;;1.73;39.92676;95008.71;;;;
2021/04/05 00:09:29;;;;;;;5.2;3.55;;;;;;;1.69;40.29395;94996.68;;;;
2021/04/05 00:10:30;;;;;;;5.2;3.55;;;;;;;1.69;40.29395;94996.68;;;;
2021/04/05 00:11:32;;;;;;;5.2;3.55;;;;;;;1.69;40.29395;94996.68;;;;
2021/04/05 00:12:33;;;;;;;5.2;3.55;;;;;;;1.69;40.29395;94996.68;;;;
2021/04/05 00:13:34;;;;;;;5.2;3.55;;;;;;;1.69;40.29395;94996.68;;;;
2021/04/05 00:14:37;;;;;;;5.2;3.55;;;;;;;1.69;40.29395;94996.68;;;;
2021/04/05 00:15:40;;;;;;;5.2;3.55;;;;;;;1.69;40.29395;94996.68;;;;
2021/04/05 00:16:40;;;;;;;5.2;3.55;;;;;;;1.69;40.29395;94996.68;;;;
2021/04/05 00:17:41;;;;;;;5.2;3.55;;;;;;;1.69;40.29395;94996.68;;;;
2021/04/05 00:18:42;;;;;;;5.2;3.55;;;;;;;1.69;40.29395;94996.68;;;;
2021/04/05 00:19:43;;;;;;;4.65;3.25;;;;;;;1.68;40.53613;94970.68;;;;
2021/04/05 00:20:44;;;;;;;4.65;3.25;;;;;;;1.68;40.53613;94970.68;;;;
2021/04/05 00:21:48;;;;;;;4.65;3.25;;;;;;;1.68;40.53613;94970.68;;;;
2021/04/05 00:22:48;;;;;;;4.65;3.25;;;;;;;1.68;40.53613;94970.68;;;;
2021/04/05 00:23:49;;;;;;;4.65;3.25;;;;;;;1.68;40.53613;94970.68;;;;
2021/04/05 00:24:50;;;;;;;4.65;3.25;;;;;;;1.68;40.53613;94970.68;;;;
2021/04/05 00:25:51;;;;;;;4.65;3.25;;;;;;;1.68;40.53613;94970.68;;;;
2021/04/05 00:26:51;;;;;;;4.65;3.25;;;;;;;1.68;40.53613;94970.68;;;;
2021/04/05 00:27:52;;;;;;;4.65;3.25;;;;;;;1.68;40.53613;94970.68;;;;
2021/04/05 00:28:53;;;;;;;4.65;3.25;;;;;;;1.68;40.53613;94970.68;;;;
2021/04/05 00:29:53;;;;;;;4.65;3.25;;;;;;;1.68;40.53613;94970.68;;;;
2021/04/05 00:30:54;;;;;;;4.950001;3.25;;;;;;;1.7;40.68652;94953.61;;;;
2021/04/05 00:31:54;;;;;;;4.950001;3.25;;;;;;;1.7;40.68652;94953.61;;;;
2021/04/05 00:32:55;;;;;;;4.950001;3.25;;;;;;;1.7;40.68652;94953.61;;;;
2021/04/05 00:33:56;;;;;;;4.950001;3.25;;;;;;;1.7;40.68652;94953.61;;;;
2021/04/05 00:34:56;;;;;;;4.950001;3.25;;;;;;;1.7;40.68652;94953.61;;;;
2021/04/05 00:35:57;;;;;;;4.950001;3.25;;;;;;;1.7;40.68652;94953.61;;;;
2021/04/05 00:36:57;;;;;;;4.950001;3.25;;;;;;;1.7;40.68652;94953.61;;;;
2021/04/05 00:37:58;;;;;;;4.950001;3.25;;;;;;;1.7;40.68652;94953.61;;;;
2021/04/05 00:39:00;;;;;;;4.950001;3.25;;;;;;;1.7;40.68652;94953.61;;;;
2021/04/05 00:40:00;;;;;;;4.950001;3.25;;;;;;;1.7;40.68652;94953.61;;;;
2021/04/05 00:41:04;;;;;;;5.1;3;;;;;;;1.72;40.93164;94943.19;;;;
2021/04/05 00:42:07;;;;;;;5.1;3;;;;;;;1.72;40.93164;94943.19;;;;
2021/04/05 00:43:08;;;;;;;5.1;3;;;;;;;1.72;40.93164;94943.19;;;;
2021/04/05 00:44:10;;;;;;;5.1;3;;;;;;;1.72;40.93164;94943.19;;;;
2021/04/05 00:45:11;;;;;;;5.1;3;;;;;;;1.72;40.93164;94943.19;;;;
2021/04/05 00:46:15;;;;;;;5.1;3;;;;;;;1.72;40.93164;94943.19;;;;
2021/04/05 00:47:20;;;;;;;5.1;3;;;;;;;1.72;40.93164;94943.19;;;;
2021/04/05 00:48:20;;;;;;;5.1;3;;;;;;;1.72;40.93164;94943.19;;;;
2021/04/05 00:49:25;;;;;;;5.1;3;;;;;;;1.72;40.93164;94943.19;;;;
2021/04/05 00:50:26;;;;;;;5.1;3;;;;;;;1.72;40.93164;94943.19;;;;
2021/04/05 00:51:35;;;;;;;4.5;3.05;;;;;;;1.72;41.38672;94916.99;;;;
2021/04/05 00:52:36;;;;;;;4.5;3.05;;;;;;;1.72;41.38672;94916.99;;;;
2021/04/05 00:53:37;;;;;;;4.5;3.05;;;;;;;1.72;41.38672;94916.99;;;;
2021/04/05 00:54:41;;;;;;;4.5;3.05;;;;;;;1.72;41.38672;94916.99;;;;
2021/04/05 00:55:42;;;;;;;4.5;3.05;;;;;;;1.72;41.38672;94916.99;;;;
2021/04/05 00:56:44;;;;;;;4.5;3.05;;;;;;;1.72;41.38672;94916.99;;;;
2021/04/05 00:57:46;;;;;;;4.5;3.05;;;;;;;1.72;41.38672;94916.99;;;;
2021/04/05 00:58:47;;;;;;;4.5;3.05;;;;;;;1.72;41.38672;94916.99;;;;
2021/04/05 00:59:49;;;;;;;4.5;3.05;;;;;;;1.72;41.38672;94916.99;;;;
2021/04/05 01:00:49;;;;;;;4.5;3.05;;;;;;;1.72;41.38672;94916.99;;;;
2021/04/05 01:01:52;;;;;;;4.5;3.05;;;;;;;1.72;41.38672;94916.99;;;;
2021/04/05 01:02:53;;;;;;;5.25;3.05;;;;;;;1.75;41.53809;94901.05;;;;
2021/04/05 01:03:54;;;;;;;5.25;3.05;;;;;;;1.75;41.53809;94901.05;;;;
2021/04/05 01:04:55;;;;;;;5.25;3.05;;;;;;;1.75;41.53809;94901.05;;;;
2021/04/05 01:05:55;;;;;;;5.25;3.05;;;;;;;1.75;41.53809;94901.05;;;;
2021/04/05 01:06:58;;;;;;;5.25;3.05;;;;;;;1.75;41.53809;94901.05;;;;
2021/04/05 01:07:58;;;;;;;5.25;3.05;;;;;;;1.75;41.53809;94901.05;;;;
2021/04/05 01:08:59;;;;;;;5.25;3.05;;;;;;;1.75;41.53809;94901.05;;;;
2021/04/05 01:10:00;;;;;;;5.25;3.05;;;;;;;1.75;41.53809;94901.05;;;;
2021/04/05 01:11:01;;;;;;;5.25;3.05;;;;;;;1.75;41.53809;94901.05;;;;
2021/04/05 01:12:02;;;;;;;5.25;3.05;;;;;;;1.75;41.53809;94901.05;;;;
2021/04/05 01:13:04;;;;;;;4.25;2.95;;;;;;;1.73;41.57813;94880.98;;;;
2021/04/05 01:14:05;;;;;;;4.25;2.95;;;;;;;1.73;41.57813;94880.98;;;;
2021/04/05 01:15:06;;;;;;;4.25;2.95;;;;;;;1.73;41.57813;94880.98;;;;
2021/04/05 01:16:09;;;;;;;4.25;2.95;;;;;;;1.73;41.57813;94880.98;;;;
2021/04/05 01:17:10;;;;;;;4.25;2.95;;;;;;;1.73;41.57813;94880.98;;;;
2021/04/05 01:18:11;;;;;;;4.25;2.95;;;;;;;1.73;41.57813;94880.98;;;;
2021/04/05 01:19:12;;;;;;;4.25;2.95;;;;;;;1.73;41.57813;94880.98;;;;
2021/04/05 01:20:13;;;;;;;4.25;2.95;;;;;;;1.73;41.57813;94880.98;;;;
2021/04/05 01:21:16;;;;;;;4.25;2.95;;;;;;;1.73;41.57813;94880.98;;;;
2021/04/05 01:22:17;;;;;;;4.25;2.95;;;;;;;1.73;41.57813;94880.98;;;;
2021/04/05 01:23:17;;;;;;;4.25;2.95;;;;;;;1.73;41.57813;94880.98;;;;
2021/04/05 01:24:21;;;;;;;5.2;3.1;;;;;;;1.62;41.69531;94873.41;;;;
2021/04/05 01:25:21;;;;;;;5.2;3.1;;;;;;;1.62;41.69531;94873.41;;;;
2021/04/05 01:26:22;;;;;;;5.2;3.1;;;;;;;1.62;41.69531;94873.41;;;;
2021/04/05 01:27:23;;;;;;;5.2;3.1;;;;;;;1.62;41.69531;94873.41;;;;
2021/04/05 01:28:23;;;;;;;5.2;3.1;;;;;;;1.62;41.69531;94873.41;;;;
2021/04/05 01:29:24;;;;;;;5.2;3.1;;;;;;;1.62;41.69531;94873.41;;;;
2021/04/05 01:30:28;;;;;;;5.2;3.1;;;;;;;1.62;41.69531;94873.41;;;;
2021/04/05 01:31:36;;;;;;;5.2;3.1;;;;;;;1.62;41.69531;94873.41;;;;
2021/04/05 01:32:37;;;;;;;5.2;3.1;;;;;;;1.62;41.69531;94873.41;;;;
2021/04/05 01:33:38;;;;;;;5.2;3.1;;;;;;;1.62;41.69531;94873.41;;;;
2021/04/05 01:34:40;;;;;;;3.8;2.750001;;;;;;;1.5;42.12695;94874.11;;;;
2021/04/05 01:35:40;;;;;;;3.8;2.750001;;;;;;;1.5;42.12695;94874.11;;;;
2021/04/05 01:36:43;;;;;;;3.8;2.750001;;;;;;;1.5;42.12695;94874.11;;;;
2021/04/05 01:37:44;;;;;;;3.8;2.750001;;;;;;;1.5;42.12695;94874.11;;;;
2021/04/05 01:38:44;;;;;;;3.8;2.750001;;;;;;;1.5;42.12695;94874.11;;;;
2021/04/05 01:39:47;;;;;;;3.8;2.750001;;;;;;;1.5;42.12695;94874.11;;;;
2021/04/05 01:40:47;;;;;;;3.8;2.750001;;;;;;;1.5;42.12695;94874.11;;;;
2021/04/05 01:41:52;;;;;;;3.8;2.750001;;;;;;;1.5;42.12695;94874.11;;;;
2021/04/05 01:42:52;;;;;;;3.8;2.750001;;;;;;;1.5;42.12695;94874.11;;;;
2021/04/05 01:43:53;;;;;;;3.8;2.750001;;;;;;;1.5;42.12695;94874.11;;;;
2021/04/05 01:44:54;;;;;;;3.6;2.85;;;;;;;1.42;42.13086;94866.16;;;;
2021/04/05 01:45:58;;;;;;;3.6;2.85;;;;;;;1.42;42.13086;94866.16;;;;
2021/04/05 01:47:00;;;;;;;3.6;2.85;;;;;;;1.42;42.13086;94866.16;;;;
2021/04/05 01:48:01;;;;;;;3.6;2.85;;;;;;;1.42;42.13086;94866.16;;;;
2021/04/05 01:49:03;;;;;;;3.6;2.85;;;;;;;1.42;42.13086;94866.16;;;;
2021/04/05 01:50:04;;;;;;;3.6;2.85;;;;;;;1.42;42.13086;94866.16;;;;
2021/04/05 01:51:05;;;;;;;3.6;2.85;;;;;;;1.42;42.13086;94866.16;;;;
2021/04/05 01:52:08;;;;;;;3.6;2.85;;;;;;;1.42;42.13086;94866.16;;;;
2021/04/05 01:53:13;;;;;;;3.6;2.85;;;;;;;1.42;42.13086;94866.16;;;;
2021/04/05 01:54:17;;;;;;;3.6;2.85;;;;;;;1.42;42.13086;94866.16;;;;
2021/04/05 01:55:18;;;;;;;3.6;2.85;;;;;;;1.42;42.13086;94866.16;;;;
2021/04/05 01:56:19;;;;;;;3.6;2.85;;;;;;;1.38;42.78125;94837.08;;;;
2021/04/05 01:57:21;;;;;;;3.6;2.85;;;;;;;1.38;42.78125;94837.08;;;;
2021/04/05 01:58:21;;;;;;;3.6;2.85;;;;;;;1.38;42.78125;94837.08;;;;
2021/04/05 01:59:22;;;;;;;3.6;2.85;;;;;;;1.38;42.78125;94837.08;;;;
2021/04/05 02:00:22;;;;;;;3.6;2.85;;;;;;;1.38;42.78125;94837.08;;;;
2021/04/05 02:01:27;;;;;;;3.6;2.85;;;;;;;1.38;42.78125;94837.08;;;;
2021/04/05 02:02:30;;;;;;;3.6;2.85;;;;;;;1.38;42.78125;94837.08;;;;
2021/04/05 02:03:33;;;;;;;3.6;2.85;;;;;;;1.38;42.78125;94837.08;;;;
2021/04/05 02:04:35;;;;;;;3.6;2.85;;;;;;;1.38;42.78125;94837.08;;;;
2021/04/05 02:05:37;;;;;;;3.6;2.85;;;;;;;1.38;42.78125;94837.08;;;;
2021/04/05 02:06:43;;;;;;;4.400001;2.85;;;;;;;1.37;42.68652;94830.02;;;;
2021/04/05 02:07:44;;;;;;;4.400001;2.85;;;;;;;1.37;42.68652;94830.02;;;;
2021/04/05 02:08:45;;;;;;;4.400001;2.85;;;;;;;1.37;42.68652;94830.02;;;;
2021/04/05 02:09:46;;;;;;;4.400001;2.85;;;;;;;1.37;42.68652;94830.02;;;;
2021/04/05 02:10:47;;;;;;;4.400001;2.85;;;;;;;1.37;42.68652;94830.02;;;;
2021/04/05 02:11:48;;;;;;;4.400001;2.85;;;;;;;1.37;42.68652;94830.02;;;;
2021/04/05 02:12:49;;;;;;;4.400001;2.85;;;;;;;1.37;42.68652;94830.02;;;;
2021/04/05 02:13:51;;;;;;;4.400001;2.85;;;;;;;1.37;42.68652;94830.02;;;;
2021/04/05 02:14:55;;;;;;;4.400001;2.85;;;;;;;1.37;42.68652;94830.02;;;;
2021/04/05 02:15:56;;;;;;;4.400001;2.85;;;;;;;1.37;42.68652;94830.02;;;;
2021/04/05 02:16:57;;;;;;;6.1;2.95;;;;;;;1.31;43.13281;94813.59;;;;
2021/04/05 02:17:57;;;;;;;6.1;2.95;;;;;;;1.31;43.13281;94813.59;;;;
2021/04/05 02:18:58;;;;;;;6.1;2.95;;;;;;;1.31;43.13281;94813.59;;;;
2021/04/05 02:20:03;;;;;;;6.1;2.95;;;;;;;1.31;43.13281;94813.59;;;;
2021/04/05 02:21:06;;;;;;;6.1;2.95;;;;;;;1.31;43.13281;94813.59;;;;
2021/04/05 02:22:10;;;;;;;6.1;2.95;;;;;;;1.31;43.13281;94813.59;;;;
2021/04/05 02:23:11;;;;;;;6.1;2.95;;;;;;;1.31;43.13281;94813.59;;;;
2021/04/05 02:24:13;;;;;;;6.1;2.95;;;;;;;1.31;43.13281;94813.59;;;;
2021/04/05 02:25:14;;;;;;;6.1;2.95;;;;;;;1.31;43.13281;94813.59;;;;
2021/04/05 02:26:18;;;;;;;6.1;2.95;;;;;;;1.31;43.13281;94813.59;;;;
2021/04/05 02:27:21;;;;;;;6.1;2.95;;;;;;;1.31;43.13281;94813.59;;;;
2021/04/05 02:28:22;;;;;;;4.950001;2.95;;;;;;;1.28;43.45898;94804.57;;;;
2021/04/05 02:29:22;;;;;;;4.950001;2.95;;;;;;;1.28;43.45898;94804.57;;;;
2021/04/05 02:30:23;;;;;;;4.950001;2.95;;;;;;;1.28;43.45898;94804.57;;;;
2021/04/05 02:31:26;;;;;;;4.950001;2.95;;;;;;;1.28;43.45898;94804.57;;;;
2021/04/05 02:32:30;;;;;;;4.950001;2.95;;;;;;;1.28;43.45898;94804.57;;;;
2021/04/05 02:33:30;;;;;;;4.950001;2.95;;;;;;;1.28;43.45898;94804.57;;;;
2021/04/05 02:34:35;;;;;;;4.950001;2.95;;;;;;;1.28;43.45898;94804.57;;;;
2021/04/05 02:35:36;;;;;;;4.950001;2.95;;;;;;;1.28;43.45898;94804.57;;;;
2021/04/05 02:36:39;;;;;;;4.950001;2.95;;;;;;;1.28;43.45898;94804.57;;;;
2021/04/05 02:37:40;;;;;;;4.950001;2.95;;;;;;;1.28;43.45898;94804.57;;;;
2021/04/05 02:38:41;;;;;;;4.3;2.8;;;;;;;1.29;43.70313;94781.47;;;;
2021/04/05 02:39:45;;;;;;;4.3;2.8;;;;;;;1.29;43.70313;94781.47;;;;
2021/04/05 02:40:45;;;;;;;4.3;2.8;;;;;;;1.29;43.70313;94781.47;;;;
2021/04/05 02:41:46;;;;;;;4.3;2.8;;;;;;;1.29;43.70313;94781.47;;;;
2021/04/05 02:42:48;;;;;;;4.3;2.8;;;;;;;1.29;43.70313;94781.47;;;;
2021/04/05 02:43:51;;;;;;;4.3;2.8;;;;;;;1.29;43.70313;94781.47;;;;
2021/04/05 02:44:52;;;;;;;4.3;2.8;;;;;;;1.29;43.70313;94781.47;;;;
2021/04/05 02:45:54;;;;;;;4.3;2.8;;;;;;;1.29;43.70313;94781.47;;;;
2021/04/05 02:46:54;;;;;;;4.3;2.8;;;;;;;1.29;43.70313;94781.47;;;;
2021/04/05 02:47:55;;;;;;;4.3;2.8;;;;;;;1.29;43.70313;94781.47;;;;
2021/04/05 02:48:59;;;;;;;7.100001;2.900001;;;;;;;1.23;43.8125;94784.38;;;;
2021/04/05 02:50:03;;;;;;;7.100001;2.900001;;;;;;;1.23;43.8125;94784.38;;;;
2021/04/05 02:51:06;;;;;;;7.100001;2.900001;;;;;;;1.23;43.8125;94784.38;;;;
2021/04/05 02:52:08;;;;;;;7.100001;2.900001;;;;;;;1.23;43.8125;94784.38;;;;
2021/04/05 02:53:09;;;;;;;7.100001;2.900001;;;;;;;1.23;43.8125;94784.38;;;;
2021/04/05 02:54:10;;;;;;;7.100001;2.900001;;;;;;;1.23;43.8125;94784.38;;;;
2021/04/05 02:55:11;;;;;;;7.100001;2.900001;;;;;;;1.23;43.8125;94784.38;;;;
2021/04/05 02:56:13;;;;;;;7.100001;2.900001;;;;;;;1.23;43.8125;94784.38;;;;
2021/04/05 02:57:14;;;;;;;7.100001;2.900001;;;;;;;1.23;43.8125;94784.38;;;;
2021/04/05 02:58:15;;;;;;;7.100001;2.900001;;;;;;;1.23;43.8125;94784.38;;;;
2021/04/05 02:59:16;;;;;;;7.100001;2.900001;;;;;;;1.23;43.8125;94784.38;;;;
2021/04/05 03:00:18;;;;;;;4.4;2.85;;;;;;;1.13;43.91895;94782.15;;;;
2021/04/05 03:01:20;;;;;;;4.4;2.85;;;;;;;1.13;43.91895;94782.15;;;;
2021/04/05 03:02:23;;;;;;;4.4;2.85;;;;;;;1.13;43.91895;94782.15;;;;
2021/04/05 03:03:24;;;;;;;4.4;2.85;;;;;;;1.13;43.91895;94782.15;;;;
2021/04/05 03:04:24;;;;;;;4.4;2.85;;;;;;;1.13;43.91895;94782.15;;;;
2021/04/05 03:05:25;;;;;;;4.4;2.85;;;;;;;1.13;43.91895;94782.15;;;;
2021/04/05 03:06:27;;;;;;;4.4;2.85;;;;;;;1.13;43.91895;94782.15;;;;
2021/04/05 03:07:28;;;;;;;4.4;2.85;;;;;;;1.13;43.91895;94782.15;;;;
2021/04/05 03:08:29;;;;;;;4.4;2.85;;;;;;;1.13;43.91895;94782.15;;;;
2021/04/05 03:09:30;;;;;;;4.4;2.85;;;;;;;1.13;43.91895;94782.15;;;;
2021/04/05 03:10:35;;;;;;;6.65;3.149999;;;;;;;1.1;44.50684;94762.58;;;;
2021/04/05 03:11:35;;;;;;;6.65;3.149999;;;;;;;1.1;44.50684;94762.58;;;;
2021/04/05 03:12:37;;;;;;;6.65;3.149999;;;;;;;1.1;44.50684;94762.58;;;;
2021/04/05 03:13:40;;;;;;;6.65;3.149999;;;;;;;1.1;44.50684;94762.58;;;;
2021/04/05 03:14:41;;;;;;;6.65;3.149999;;;;;;;1.1;44.50684;94762.58;;;;
2021/04/05 03:15:41;;;;;;;6.65;3.149999;;;;;;;1.1;44.50684;94762.58;;;;
2021/04/05 03:16:43;;;;;;;6.65;3.149999;;;;;;;1.1;44.50684;94762.58;;;;
2021/04/05 03:17:45;;;;;;;6.65;3.149999;;;;;;;1.1;44.50684;94762.58;;;;
2021/04/05 03:18:48;;;;;;;6.65;3.149999;;;;;;;1.1;44.50684;94762.58;;;;
2021/04/05 03:19:51;;;;;;;6.65;3.149999;;;;;;;1.1;44.50684;94762.58;;;;
2021/04/05 03:20:53;;;;;;;6.65;3.149999;;;;;;;1.1;44.50684;94762.58;;;;
2021/04/05 03:21:54;;;;;;;3.4;2.8;;;;;;;1.14;44.34082;94730.2;;;;
2021/04/05 03:22:55;;;;;;;3.4;2.8;;;;;;;1.14;44.34082;94730.2;;;;
2021/04/05 03:23:56;;;;;;;3.4;2.8;;;;;;;1.14;44.34082;94730.2;;;;
2021/04/05 03:24:59;;;;;;;3.4;2.8;;;;;;;1.14;44.34082;94730.2;;;;
2021/04/05 03:26:00;;;;;;;3.4;2.8;;;;;;;1.14;44.34082;94730.2;;;;
2021/04/05 03:27:01;;;;;;;3.4;2.8;;;;;;;1.14;44.34082;94730.2;;;;
2021/04/05 03:28:03;;;;;;;3.4;2.8;;;;;;;1.14;44.34082;94730.2;;;;
2021/04/05 03:29:04;;;;;;;3.4;2.8;;;;;;;1.14;44.34082;94730.2;;;;
2021/04/05 03:30:06;;;;;;;3.4;2.8;;;;;;;1.14;44.34082;94730.2;;;;
2021/04/05 03:31:10;;;;;;;3.4;2.8;;;;;;;1.14;44.34082;94730.2;;;;
2021/04/05 03:32:15;;;;;;;5.25;3.15;;;;;;;1.16;44.92383;94711.81;;;;
2021/04/05 03:33:20;;;;;;;5.25;3.15;;;;;;;1.16;44.92383;94711.81;;;;
2021/04/05 03:34:25;;;;;;;5.25;3.15;;;;;;;1.16;44.92383;94711.81;;;;
2021/04/05 03:35:27;;;;;;;5.25;3.15;;;;;;;1.16;44.92383;94711.81;;;;
2021/04/05 03:36:32;;;;;;;5.25;3.15;;;;;;;1.16;44.92383;94711.81;;;;
2021/04/05 03:37:38;;;;;;;5.25;3.15;;;;;;;1.16;44.92383;94711.81;;;;
2021/04/05 03:38:43;;;;;;;5.25;3.15;;;;;;;1.16;44.92383;94711.81;;;;
2021/04/05 03:39:43;;;;;;;5.25;3.15;;;;;;;1.16;44.92383;94711.81;;;;
2021/04/05 03:40:44;;;;;;;5.25;3.15;;;;;;;1.16;44.92383;94711.81;;;;
2021/04/05 03:41:45;;;;;;;5.25;3.15;;;;;;;1.16;44.92383;94711.81;;;;
2021/04/05 03:42:49;;;;;;;4.7;2.65;;;;;;;1.16;44.89258;94698.52;;;;
2021/04/05 03:43:58;;;;;;;4.7;2.65;;;;;;;1.16;44.89258;94698.52;;;;
2021/04/05 03:45:04;;;;;;;4.7;2.65;;;;;;;1.16;44.89258;94698.52;;;;
2021/04/05 03:46:15;;;;;;;4.7;2.65;;;;;;;1.16;44.89258;94698.52;;;;
2021/04/05 03:47:22;;;;;;;4.7;2.65;;;;;;;1.16;44.89258;94698.52;;;;
2021/04/05 03:48:29;;;;;;;4.7;2.65;;;;;;;1.16;44.89258;94698.52;;;;
2021/04/05 03:49:35;;;;;;;4.7;2.65;;;;;;;1.16;44.89258;94698.52;;;;
2021/04/05 03:50:41;;;;;;;4.7;2.65;;;;;;;1.16;44.89258;94698.52;;;;
2021/04/05 03:51:46;;;;;;;4.7;2.65;;;;;;;1.16;44.89258;94698.52;;;;
2021/04/05 03:52:52;;;;;;;4.7;2.65;;;;;;;1.16;44.89258;94698.52;;;;
2021/04/05 03:54:12;;;;;;;5.249999;2.85;;;;;;;1.09;45.16992;94671.48;;;;
2021/04/05 03:55:15;;;;;;;5.249999;2.85;;;;;;;1.09;45.16992;94671.48;;;;
2021/04/05 03:56:20;;;;;;;5.249999;2.85;;;;;;;1.09;45.16992;94671.48;;;;
2021/04/05 03:57:25;;;;;;;5.249999;2.85;;;;;;;1.09;45.16992;94671.48;;;;
2021/04/05 03:58:32;;;;;;;5.249999;2.85;;;;;;;1.09;45.16992;94671.48;;;;
2021/04/05 03:59:34;;;;;;;5.249999;2.85;;;;;;;1.09;45.16992;94671.48;;;;
2021/04/05 04:00:39;;;;;;;5.249999;2.85;;;;;;;1.09;45.16992;94671.48;;;;
2021/04/05 04:01:42;;;;;;;5.249999;2.85;;;;;;;1.09;45.16992;94671.48;;;;
2021/04/05 04:02:47;;;;;;;5.249999;2.85;;;;;;;1.09;45.16992;94671.48;;;;
2021/04/05 04:03:56;;;;;;;5.05;2.95;;;;;;;1.03;45.28027;94660.69;;;;
2021/04/05 04:05:03;;;;;;;5.05;2.95;;;;;;;1.03;45.28027;94660.69;;;;
2021/04/05 04:06:05;;;;;;;5.05;2.95;;;;;;;1.03;45.28027;94660.69;;;;
2021/04/05 04:07:12;;;;;;;5.05;2.95;;;;;;;1.03;45.28027;94660.69;;;;
2021/04/05 04:08:19;;;;;;;5.05;2.95;;;;;;;1.03;45.28027;94660.69;;;;
2021/04/05 04:09:23;;;;;;;5.05;2.95;;;;;;;1.03;45.28027;94660.69;;;;
2021/04/05 04:10:28;;;;;;;5.05;2.95;;;;;;;1.03;45.28027;94660.69;;;;
2021/04/05 04:11:31;;;;;;;5.05;2.95;;;;;;;1.03;45.28027;94660.69;;;;
2021/04/05 04:12:34;;;;;;;5.05;2.95;;;;;;;1.03;45.28027;94660.69;;;;
2021/04/05 04:13:38;;;;;;;5.05;2.95;;;;;;;1.03;45.28027;94660.69;;;;
2021/04/05 04:14:42;;;;;;;4.600001;2.55;;;;;;;0.99;46.05762;94640.83;;;;
2021/04/05 04:15:44;;;;;;;4.600001;2.55;;;;;;;0.99;46.05762;94640.83;;;;
2021/04/05 04:16:49;;;;;;;4.600001;2.55;;;;;;;0.99;46.05762;94640.83;;;;
2021/04/05 04:17:51;;;;;;;4.600001;2.55;;;;;;;0.99;46.05762;94640.83;;;;
2021/04/05 04:18:52;;;;;;;4.600001;2.55;;;;;;;0.99;46.05762;94640.83;;;;
2021/04/05 04:19:56;;;;;;;4.600001;2.55;;;;;;;0.99;46.05762;94640.83;;;;
2021/04/05 04:21:01;;;;;;;4.600001;2.55;;;;;;;0.99;46.05762;94640.83;;;;
2021/04/05 04:22:05;;;;;;;4.600001;2.55;;;;;;;0.99;46.05762;94640.83;;;;
2021/04/05 04:23:07;;;;;;;4.600001;2.55;;;;;;;0.99;46.05762;94640.83;;;;
2021/04/05 04:24:08;;;;;;;4.600001;2.55;;;;;;;0.99;46.05762;94640.83;;;;
2021/04/05 04:25:09;;;;;;;3.75;2.4;;;;;;;1.07;46.18164;94636.71;;;;
2021/04/05 04:26:11;;;;;;;3.75;2.4;;;;;;;1.07;46.18164;94636.71;;;;
2021/04/05 04:27:12;;;;;;;3.75;2.4;;;;;;;1.07;46.18164;94636.71;;;;
2021/04/05 04:28:14;;;;;;;3.75;2.4;;;;;;;1.07;46.18164;94636.71;;;;
2021/04/05 04:29:15;;;;;;;3.75;2.4;;;;;;;1.07;46.18164;94636.71;;;;
2021/04/05 04:30:31;;;;;;;3.75;2.4;;;;;;;1.07;46.18164;94636.71;;;;
2021/04/05 04:31:32;;;;;;;3.75;2.4;;;;;;;1.07;46.18164;94636.71;;;;
2021/04/05 04:32:32;;;;;;;3.75;2.4;;;;;;;1.07;46.18164;94636.71;;;;
2021/04/05 04:33:33;;;;;;;3.75;2.4;;;;;;;1.07;46.18164;94636.71;;;;
2021/04/05 04:34:34;;;;;;;3.75;2.4;;;;;;;1.07;46.18164;94636.71;;;;
2021/04/05 04:35:34;;;;;;;3.75;2.4;;;;;;;1.07;46.18164;94636.71;;;;
2021/04/05 04:36:36;;;;;;;3.35;2.4;;;;;;;1.18;46.09863;94617.99;;;;
2021/04/05 04:37:37;;;;;;;3.35;2.4;;;;;;;1.18;46.09863;94617.99;;;;
2021/04/05 04:38:39;;;;;;;3.35;2.4;;;;;;;1.18;46.09863;94617.99;;;;
2021/04/05 04:39:40;;;;;;;3.35;2.4;;;;;;;1.18;46.09863;94617.99;;;;
2021/04/05 04:40:41;;;;;;;3.35;2.4;;;;;;;1.18;46.09863;94617.99;;;;
2021/04/05 04:41:42;;;;;;;3.35;2.4;;;;;;;1.18;46.09863;94617.99;;;;
2021/04/05 04:42:44;;;;;;;3.35;2.4;;;;;;;1.18;46.09863;94617.99;;;;
2021/04/05 04:43:44;;;;;;;3.35;2.4;;;;;;;1.18;46.09863;94617.99;;;;
2021/04/05 04:44:45;;;;;;;3.35;2.4;;;;;;;1.18;46.09863;94617.99;;;;
2021/04/05 04:45:46;;;;;;;3.35;2.4;;;;;;;1.18;46.09863;94617.99;;;;
2021/04/05 04:46:46;;;;;;;3.9;2.55;;;;;;;1.45;46.54004;94591.44;;;;
2021/04/05 04:47:47;;;;;;;3.9;2.55;;;;;;;1.45;46.54004;94591.44;;;;
2021/04/05 04:48:50;;;;;;;3.9;2.55;;;;;;;1.45;46.54004;94591.44;;;;
2021/04/05 04:49:55;;;;;;;3.9;2.55;;;;;;;1.45;46.54004;94591.44;;;;
2021/04/05 04:50:55;;;;;;;3.9;2.55;;;;;;;1.45;46.54004;94591.44;;;;
2021/04/05 04:51:56;;;;;;;3.9;2.55;;;;;;;1.45;46.54004;94591.44;;;;
2021/04/05 04:52:57;;;;;;;3.9;2.55;;;;;;;1.45;46.54004;94591.44;;;;
2021/04/05 04:53:57;;;;;;;3.9;2.55;;;;;;;1.45;46.54004;94591.44;;;;
2021/04/05 04:55:00;;;;;;;3.9;2.55;;;;;;;1.45;46.54004;94591.44;;;;
2021/04/05 04:56:01;;;;;;;3.9;2.55;;;;;;;1.45;46.54004;94591.44;;;;
2021/04/05 04:57:01;;;;;;;3.9;2.55;;;;;;;1.45;46.54004;94591.44;;;;
2021/04/05 04:58:03;;;;;;;3.1;2.3;;;;;;;1.64;46.60352;94575.64;;;;
2021/04/05 04:59:04;;;;;;;3.1;2.3;;;;;;;1.64;46.60352;94575.64;;;;
2021/04/05 05:00:07;;;;;;;3.1;2.3;;;;;;;1.64;46.60352;94575.64;;;;
2021/04/05 05:01:09;;;;;;;3.1;2.3;;;;;;;1.64;46.60352;94575.64;;;;
2021/04/05 05:02:10;;;;;;;3.1;2.3;;;;;;;1.64;46.60352;94575.64;;;;
2021/04/05 05:03:11;;;;;;;3.1;2.3;;;;;;;1.64;46.60352;94575.64;;;;
2021/04/05 05:04:13;;;;;;;3.1;2.3;;;;;;;1.64;46.60352;94575.64;;;;
2021/04/05 05:05:17;;;;;;;3.1;2.3;;;;;;;1.64;46.60352;94575.64;;;;
2021/04/05 05:06:20;;;;;;;3.1;2.3;;;;;;;1.64;46.60352;94575.64;;;;
2021/04/05 05:07:23;;;;;;;3.1;2.3;;;;;;;1.64;46.60352;94575.64;;;;
2021/04/05 05:08:25;;;;;;;4.8;2.5;;;;;;;1.92;46.79102;94572.88;;;;
2021/04/05 05:09:26;;;;;;;4.8;2.5;;;;;;;1.92;46.79102;94572.88;;;;
2021/04/05 05:10:27;;;;;;;4.8;2.5;;;;;;;1.92;46.79102;94572.88;;;;
2021/04/05 05:11:28;;;;;;;4.8;2.5;;;;;;;1.92;46.79102;94572.88;;;;
2021/04/05 05:12:29;;;;;;;4.8;2.5;;;;;;;1.92;46.79102;94572.88;;;;
2021/04/05 05:13:31;;;;;;;4.8;2.5;;;;;;;1.92;46.79102;94572.88;;;;
2021/04/05 05:14:32;;;;;;;4.8;2.5;;;;;;;1.92;46.79102;94572.88;;;;
2021/04/05 05:15:33;;;;;;;4.8;2.5;;;;;;;1.92;46.79102;94572.88;;;;
2021/04/05 05:16:36;;;;;;;4.8;2.5;;;;;;;1.92;46.79102;94572.88;;;;
2021/04/05 05:17:37;;;;;;;4.8;2.5;;;;;;;1.92;46.79102;94572.88;;;;
2021/04/05 05:18:39;;;;;;;3.05;2.45;;;;;;;2.24;46.90039;94573.05;;;;
2021/04/05 05:19:41;;;;;;;3.05;2.45;;;;;;;2.24;46.90039;94573.05;;;;
2021/04/05 05:20:43;;;;;;;3.05;2.45;;;;;;;2.24;46.90039;94573.05;;;;
2021/04/05 05:21:43;;;;;;;3.05;2.45;;;;;;;2.24;46.90039;94573.05;;;;
2021/04/05 05:22:47;;;;;;;3.05;2.45;;;;;;;2.24;46.90039;94573.05;;;;
2021/04/05 05:23:51;;;;;;;3.05;2.45;;;;;;;2.24;46.90039;94573.05;;;;
2021/04/05 05:24:53;;;;;;;3.05;2.45;;;;;;;2.24;46.90039;94573.05;;;;
2021/04/05 05:25:55;;;;;;;3.05;2.45;;;;;;;2.24;46.90039;94573.05;;;;
2021/04/05 05:26:57;;;;;;;3.05;2.45;;;;;;;2.24;46.90039;94573.05;;;;
2021/04/05 05:27:58;;;;;;;3.05;2.45;;;;;;;2.24;46.90039;94573.05;;;;
2021/04/05 05:29:03;;;;;;;3.05;2.45;;;;;;;2.24;46.90039;94573.05;;;;
2021/04/05 05:30:07;;;;;;;3.5;2.5;;;;;;;2.58;46.5791;94583.03;;;;
2021/04/05 05:31:11;;;;;;;3.5;2.5;;;;;;;2.58;46.5791;94583.03;;;;
2021/04/05 05:32:12;;;;;;;3.5;2.5;;;;;;;2.58;46.5791;94583.03;;;;
2021/04/05 05:33:17;;;;;;;3.5;2.5;;;;;;;2.58;46.5791;94583.03;;;;
2021/04/05 05:34:19;;;;;;;3.5;2.5;;;;;;;2.58;46.5791;94583.03;;;;
2021/04/05 05:35:22;;;;;;;3.5;2.5;;;;;;;2.58;46.5791;94583.03;;;;
2021/04/05 05:36:23;;;;;;;3.5;2.5;;;;;;;2.58;46.5791;94583.03;;;;
2021/04/05 05:37:24;;;;;;;3.5;2.5;;;;;;;2.58;46.5791;94583.03;;;;
2021/04/05 05:38:24;;;;;;;3.5;2.5;;;;;;;2.58;46.5791;94583.03;;;;
2021/04/05 05:39:25;;;;;;;3.5;2.5;;;;;;;2.58;46.5791;94583.03;;;;
2021/04/05 05:40:27;;;;;;;5.25;2.7;;;;;;;3.04;46.35254;94571.03;;;;
2021/04/05 05:41:29;;;;;;;5.25;2.7;;;;;;;3.04;46.35254;94571.03;;;;
2021/04/05 05:42:51;;;;;;;5.25;2.7;;;;;;;3.04;46.35254;94571.03;;;;
2021/04/05 05:44:00;;;;;;;5.25;2.7;;;;;;;3.04;46.35254;94571.03;;;;
2021/04/05 05:45:08;;;;;;;5.25;2.7;;;;;;;3.04;46.35254;94571.03;;;;
2021/04/05 05:46:14;;;;;;;5.25;2.7;;;;;;;3.04;46.35254;94571.03;;;;
2021/04/05 05:47:23;;;;;;;5.25;2.7;;;;;;;3.04;46.35254;94571.03;;;;
2021/04/05 05:48:30;;;;;;;5.25;2.7;;;;;;;3.04;46.35254;94571.03;;;;
2021/04/05 05:49:43;;;;;;;5.25;2.7;;;;;;;3.04;46.35254;94571.03;;;;
2021/04/05 05:50:48;;;;;;;3.75;2.4;;;;;;;3.59;46.11621;94545.62;;;;
2021/04/05 05:51:55;;;;;;;3.75;2.4;;;;;;;3.59;46.11621;94545.62;;;;
2021/04/05 05:53:08;;;;;;;3.75;2.4;;;;;;;3.59;46.11621;94545.62;;;;
2021/04/05 05:54:19;;;;;;;3.75;2.4;;;;;;;3.59;46.11621;94545.62;;;;
2021/04/05 05:55:28;;;;;;;3.75;2.4;;;;;;;3.59;46.11621;94545.62;;;;
2021/04/05 05:56:45;;;;;;;3.75;2.4;;;;;;;3.59;46.11621;94545.62;;;;
2021/04/05 05:57:51;;;;;;;3.75;2.4;;;;;;;3.59;46.11621;94545.62;;;;